Flight Track Log - Related Links

Times and Time Zones

All times are in EDT time to prevent confusion due to time zone crossing. See the CHQ5348 flight status page for this flight to view local times or setup timezone preferences in your user account.

Time Position Orientation Groundspeed Altitude Reporting Facility
EDT Latitude Longitude Course Direction KTS MPH feet Rate Location/Type
Tue 06:18:20 AM 42.8336 -85.5158 253° West 203 234 6,000  Level Chicago Center
Tue 06:19:00 AM 42.7409 -85.8775 246° West  Level FlightAware Approximate
Tue 06:19:20 AM 42.8094 -85.5994 249° West 228 262 8,800  Level Chicago Center
Tue 06:20:00 AM 42.7106 -85.9684 246° West  Level FlightAware Approximate
Tue 06:20:21 AM 42.7869 -85.6867 251° West 239 275 10,000  Level Chicago Center
Tue 06:21:00 AM 42.6811 -86.0597 253° West  Level FlightAware Approximate
Tue 06:21:21 AM 42.7608 -85.7792 249° West 255 293 10,000  Level Chicago Center
Tue 06:22:00 AM 42.6616 -86.1443 253° West  Level FlightAware Approximate
Tue 06:22:22 AM 42.7358 -85.8711 250° West 257 296 10,000  Level Chicago Center
Tue 06:23:00 AM 42.6421 -86.2289 253° West  Level FlightAware Approximate
Tue 06:23:22 AM 42.7100 -85.9628 249° West 257 296 10,000  Level Chicago Center
Tue 06:24:23 AM 42.6864 -86.0536 251° West 257 296 10,000  Level Chicago Center
Tue 06:25:23 AM 42.6692 -86.1458 256° West 256 295 10,000  Level Chicago Center
Tue 06:26:24 AM 42.6531 -86.2350 256° West 250 288 10,000  Level Chicago Center
Tue 06:27:24 AM 42.6364 -86.3217 255° West 241 277 10,000  Level Chicago Center
Tue 06:28:25 AM 42.6189 -86.4119 255° West 245 282 10,000  Level Chicago Center
Tue 06:29:25 AM 42.5978 -86.5219 255° West 295 339 10,000  Level Chicago Center
Tue 06:30:26 AM 42.5772 -86.6386 257° West 316 364 10,000  Level Chicago Center
Tue 06:31:26 AM 42.5556 -86.7531 256° West 316 364 10,000  Level Chicago Center
Tue 06:32:27 AM 42.5189 -86.8800 249° West 303 349 10,000  Level Chicago Center
Tue 06:33:27 AM 42.4897 -86.9894 250° West 306 352 10,000  Level Chicago Center
Tue 06:34:28 AM 42.4483 -87.0828 239° Southwest 302 348 10,000  Level Chicago Center
Tue 06:35:29 AM 42.3811 -87.1508 217° Southwest 304 350 10,000  Level Chicago Center
Tue 06:36:29 AM 42.3125 -87.2153 215° Southwest 304 350 10,000 -397 Level Chicago Center
Tue 06:37:30 AM 42.2597 -87.2661 215° Southwest 233 268 9,200 -1,140 Descending Chicago Center
Tue 06:38:30 AM 42.2039 -87.3172 214° Southwest 226 260 7,700 -1,686 Descending Chicago Center
Tue 06:39:31 AM 42.1578 -87.3667 218° Southwest 214 246 5,800 -1,339 Descending Chicago Center
Tue 06:40:31 AM 42.1106 -87.4147 217° Southwest 213 245 5,000 -397 Descending Chicago Center
Tue 06:41:32 AM 42.0769 -87.4750 233° Southwest 206 237 5,000  Level Chicago Center
Tue 06:42:33 AM 42.0503 -87.5458 243° Southwest 210 242 5,000 -149 Level Chicago Center
Tue 06:43:33 AM 42.0228 -87.6181 243° Southwest 213 245 4,700 -739 Descending Chicago Center
Tue 06:44:51 AM 42.0000 -87.7167 253° West 178 205 3,300 -913 Descending Chicago TRACON
Tue 06:45:51 AM 41.9833 -87.7667 246° West 153 176 2,600 -750 Descending Chicago TRACON
Tue 06:46:51 AM 41.9833 -87.8167 270° West 124 143 1,800 -700 Descending Chicago TRACON
Tue 06:47:51 AM 41.9833 -87.8500 270° West 121 139 1,200 -600 Descending Chicago TRACON

Login

Don't have an account? Register now (free) for customized features, flight alerts, and more!